sensor_id;sensor_type;location;lat;lon;timestamp;P1;durP1;ratioP1;P2;durP2;ratioP2
15488;SDS011;7846;48.830;9.116;2022-12-07T00:01:37;8.67;;;7.30;;
15488;SDS011;7846;48.830;9.116;2022-12-07T00:04:04;10.50;;;8.30;;
15488;SDS011;7846;48.830;9.116;2022-12-07T00:06:32;9.77;;;7.90;;
15488;SDS011;7846;48.830;9.116;2022-12-07T00:08:59;8.93;;;8.03;;
15488;SDS011;7846;48.830;9.116;2022-12-07T00:11:25;8.83;;;7.93;;
15488;SDS011;7846;48.830;9.116;2022-12-07T00:13:52;10.50;;;7.77;;
15488;SDS011;7846;48.830;9.116;2022-12-07T00:16:19;9.37;;;8.47;;
15488;SDS011;7846;48.830;9.116;2022-12-07T00:18:46;10.03;;;8.80;;
15488;SDS011;7846;48.830;9.116;2022-12-07T00:21:12;9.43;;;8.43;;
15488;SDS011;7846;48.830;9.116;2022-12-07T00:23:40;9.63;;;8.63;;
15488;SDS011;7846;48.830;9.116;2022-12-07T00:26:07;10.23;;;9.23;;
15488;SDS011;7846;48.830;9.116;2022-12-07T00:28:34;10.13;;;8.90;;
15488;SDS011;7846;48.830;9.116;2022-12-07T00:31:04;9.87;;;8.73;;
15488;SDS011;7846;48.830;9.116;2022-12-07T00:33:34;11.07;;;9.33;;
15488;SDS011;7846;48.830;9.116;2022-12-07T00:36:00;10.90;;;9.57;;
15488;SDS011;7846;48.830;9.116;2022-12-07T00:38:28;10.23;;;9.23;;
15488;SDS011;7846;48.830;9.116;2022-12-07T00:40:57;9.80;;;8.80;;
15488;SDS011;7846;48.830;9.116;2022-12-07T00:43:24;10.73;;;9.63;;
15488;SDS011;7846;48.830;9.116;2022-12-07T00:45:50;9.63;;;8.40;;
15488;SDS011;7846;48.830;9.116;2022-12-07T00:48:17;10.40;;;9.30;;
15488;SDS011;7846;48.830;9.116;2022-12-07T00:50:44;10.57;;;9.20;;
15488;SDS011;7846;48.830;9.116;2022-12-07T00:53:09;9.87;;;8.87;;
15488;SDS011;7846;48.830;9.116;2022-12-07T00:55:35;10.07;;;9.03;;
15488;SDS011;7846;48.830;9.116;2022-12-07T00:58:02;10.23;;;9.13;;
15488;SDS011;7846;48.830;9.116;2022-12-07T01:00:28;10.20;;;9.13;;
15488;SDS011;7846;48.830;9.116;2022-12-07T01:02:54;10.93;;;9.20;;
15488;SDS011;7846;48.830;9.116;2022-12-07T01:05:19;10.07;;;9.07;;
15488;SDS011;7846;48.830;9.116;2022-12-07T01:07:45;9.63;;;8.73;;
15488;SDS011;7846;48.830;9.116;2022-12-07T01:10:12;10.37;;;9.27;;
15488;SDS011;7846;48.830;9.116;2022-12-07T01:12:38;10.27;;;9.17;;
15488;SDS011;7846;48.830;9.116;2022-12-07T01:15:04;10.13;;;9.07;;
15488;SDS011;7846;48.830;9.116;2022-12-07T01:17:31;9.77;;;8.87;;
15488;SDS011;7846;48.830;9.116;2022-12-07T01:19:57;10.67;;;8.43;;
15488;SDS011;7846;48.830;9.116;2022-12-07T01:22:23;9.70;;;8.70;;
15488;SDS011;7846;48.830;9.116;2022-12-07T01:24:49;10.23;;;8.90;;
15488;SDS011;7846;48.830;9.116;2022-12-07T01:27:14;9.60;;;8.60;;
15488;SDS011;7846;48.830;9.116;2022-12-07T01:29:40;9.53;;;8.47;;
15488;SDS011;7846;48.830;9.116;2022-12-07T01:32:06;9.00;;;8.07;;
15488;SDS011;7846;48.830;9.116;2022-12-07T01:34:33;9.73;;;8.73;;
15488;SDS011;7846;48.830;9.116;2022-12-07T01:37:00;8.87;;;7.93;;
15488;SDS011;7846;48.830;9.116;2022-12-07T01:39:26;9.17;;;8.27;;
15488;SDS011;7846;48.830;9.116;2022-12-07T01:41:52;9.40;;;8.47;;
15488;SDS011;7846;48.830;9.116;2022-12-07T01:44:27;9.70;;;8.70;;
15488;SDS011;7846;48.830;9.116;2022-12-07T01:47:04;9.10;;;8.20;;
15488;SDS011;7846;48.830;9.116;2022-12-07T01:52:16;9.63;;;8.63;;
15488;SDS011;7846;48.830;9.116;2022-12-07T01:54:45;9.03;;;8.13;;
15488;SDS011;7846;48.830;9.116;2022-12-07T01:57:14;9.63;;;8.63;;
15488;SDS011;7846;48.830;9.116;2022-12-07T01:59:42;9.13;;;8.23;;
15488;SDS011;7846;48.830;9.116;2022-12-07T02:02:13;9.50;;;8.60;;
15488;SDS011;7846;48.830;9.116;2022-12-07T02:04:44;10.43;;;8.60;;
15488;SDS011;7846;48.830;9.116;2022-12-07T02:07:10;9.47;;;8.43;;
15488;SDS011;7846;48.830;9.116;2022-12-07T02:09:36;9.17;;;8.23;;
15488;SDS011;7846;48.830;9.116;2022-12-07T02:12:04;9.03;;;8.10;;
15488;SDS011;7846;48.830;9.116;2022-12-07T02:14:30;8.73;;;7.43;;
15488;SDS011;7846;48.830;9.116;2022-12-07T02:17:07;9.40;;;8.17;;
15488;SDS011;7846;48.830;9.116;2022-12-07T02:19:51;11.17;;;7.53;;
15488;SDS011;7846;48.830;9.116;2022-12-07T02:23:00;10.57;;;8.27;;
15488;SDS011;7846;48.830;9.116;2022-12-07T02:25:46;10.17;;;8.30;;
15488;SDS011;7846;48.830;9.116;2022-12-07T02:28:31;9.00;;;7.80;;
15488;SDS011;7846;48.830;9.116;2022-12-07T02:31:04;8.37;;;7.57;;
15488;SDS011;7846;48.830;9.116;2022-12-07T02:33:36;10.07;;;8.47;;
15488;SDS011;7846;48.830;9.116;2022-12-07T02:36:06;8.80;;;7.87;;
15488;SDS011;7846;48.830;9.116;2022-12-07T02:38:39;9.20;;;8.10;;
15488;SDS011;7846;48.830;9.116;2022-12-07T02:41:12;8.73;;;7.70;;
15488;SDS011;7846;48.830;9.116;2022-12-07T02:46:22;8.93;;;8.00;;
15488;SDS011;7846;48.830;9.116;2022-12-07T02:48:51;8.73;;;7.80;;
15488;SDS011;7846;48.830;9.116;2022-12-07T02:51:18;9.00;;;8.10;;
15488;SDS011;7846;48.830;9.116;2022-12-07T02:53:43;9.30;;;8.17;;
15488;SDS011;7846;48.830;9.116;2022-12-07T02:56:20;9.17;;;8.27;;
15488;SDS011;7846;48.830;9.116;2022-12-07T02:59:22;9.83;;;8.83;;
15488;SDS011;7846;48.830;9.116;2022-12-07T03:05:08;9.03;;;8.03;;
15488;SDS011;7846;48.830;9.116;2022-12-07T03:08:07;10.37;;;7.80;;
15488;SDS011;7846;48.830;9.116;2022-12-07T03:11:16;11.03;;;8.77;;
15488;SDS011;7846;48.830;9.116;2022-12-07T03:16:14;9.50;;;8.50;;
15488;SDS011;7846;48.830;9.116;2022-12-07T03:18:45;9.47;;;8.57;;
15488;SDS011;7846;48.830;9.116;2022-12-07T03:21:25;10.37;;;8.50;;
15488;SDS011;7846;48.830;9.116;2022-12-07T03:23:55;10.07;;;8.80;;
15488;SDS011;7846;48.830;9.116;2022-12-07T03:26:28;9.80;;;8.80;;
15488;SDS011;7846;48.830;9.116;2022-12-07T03:28:58;10.33;;;9.17;;
15488;SDS011;7846;48.830;9.116;2022-12-07T03:31:33;10.30;;;9.17;;
15488;SDS011;7846;48.830;9.116;2022-12-07T03:34:07;11.20;;;9.30;;
15488;SDS011;7846;48.830;9.116;2022-12-07T03:36:50;10.23;;;9.13;;
15488;SDS011;7846;48.830;9.116;2022-12-07T03:41:57;10.17;;;9.07;;
15488;SDS011;7846;48.830;9.116;2022-12-07T03:44:29;10.63;;;9.53;;
15488;SDS011;7846;48.830;9.116;2022-12-07T03:46:59;9.80;;;8.80;;
15488;SDS011;7846;48.830;9.116;2022-12-07T03:55:10;10.03;;;9.03;;
15488;SDS011;7846;48.830;9.116;2022-12-07T03:57:41;11.27;;;9.70;;
15488;SDS011;7846;48.830;9.116;2022-12-07T04:00:09;10.37;;;9.37;;
15488;SDS011;7846;48.830;9.116;2022-12-07T04:02:43;11.20;;;9.83;;
15488;SDS011;7846;48.830;9.116;2022-12-07T04:05:10;10.23;;;9.10;;
15488;SDS011;7846;48.830;9.116;2022-12-07T04:07:36;11.23;;;9.67;;
15488;SDS011;7846;48.830;9.116;2022-12-07T04:10:05;10.57;;;9.43;;
15488;SDS011;7846;48.830;9.116;2022-12-07T04:12:31;11.00;;;9.50;;
15488;SDS011;7846;48.830;9.116;2022-12-07T04:14:57;9.80;;;8.80;;
15488;SDS011;7846;48.830;9.116;2022-12-07T04:17:22;11.13;;;8.77;;
15488;SDS011;7846;48.830;9.116;2022-12-07T04:19:47;9.87;;;8.80;;
15488;SDS011;7846;48.830;9.116;2022-12-07T04:22:13;9.27;;;8.27;;
15488;SDS011;7846;48.830;9.116;2022-12-07T04:24:39;9.67;;;8.13;;
15488;SDS011;7846;48.830;9.116;2022-12-07T04:27:05;9.30;;;8.30;;
15488;SDS011;7846;48.830;9.116;2022-12-07T04:29:32;8.07;;;7.10;;
15488;SDS011;7846;48.830;9.116;2022-12-07T04:32:00;8.33;;;7.20;;
15488;SDS011;7846;48.830;9.116;2022-12-07T04:34:26;7.47;;;6.63;;
15488;SDS011;7846;48.830;9.116;2022-12-07T04:36:51;6.47;;;5.87;;
15488;SDS011;7846;48.830;9.116;2022-12-07T04:39:18;5.37;;;4.87;;
15488;SDS011;7846;48.830;9.116;2022-12-07T04:41:57;5.20;;;4.73;;
15488;SDS011;7846;48.830;9.116;2022-12-07T04:44:28;5.33;;;4.57;;
15488;SDS011;7846;48.830;9.116;2022-12-07T04:46:57;4.07;;;3.67;;
15488;SDS011;7846;48.830;9.116;2022-12-07T04:49:23;4.57;;;3.37;;
15488;SDS011;7846;48.830;9.116;2022-12-07T04:51:50;4.10;;;3.30;;
15488;SDS011;7846;48.830;9.116;2022-12-07T04:54:16;4.03;;;3.63;;
15488;SDS011;7846;48.830;9.116;2022-12-07T04:56:43;4.23;;;3.83;;
15488;SDS011;7846;48.830;9.116;2022-12-07T04:59:09;4.50;;;4.10;;
15488;SDS011;7846;48.830;9.116;2022-12-07T05:01:36;4.43;;;4.03;;
15488;SDS011;7846;48.830;9.116;2022-12-07T05:04:03;4.70;;;4.17;;
15488;SDS011;7846;48.830;9.116;2022-12-07T05:06:30;6.27;;;5.00;;
15488;SDS011;7846;48.830;9.116;2022-12-07T05:08:55;5.43;;;4.93;;
15488;SDS011;7846;48.830;9.116;2022-12-07T05:11:22;5.47;;;4.80;;
15488;SDS011;7846;48.830;9.116;2022-12-07T05:14:07;7.27;;;5.43;;
15488;SDS011;7846;48.830;9.116;2022-12-07T05:16:35;6.57;;;5.87;;
15488;SDS011;7846;48.830;9.116;2022-12-07T05:19:02;7.67;;;6.77;;
15488;SDS011;7846;48.830;9.116;2022-12-07T05:21:27;6.93;;;6.20;;
15488;SDS011;7846;48.830;9.116;2022-12-07T05:23:53;8.07;;;6.30;;
15488;SDS011;7846;48.830;9.116;2022-12-07T05:26:18;7.00;;;5.60;;
15488;SDS011;7846;48.830;9.116;2022-12-07T05:28:44;7.27;;;6.10;;
15488;SDS011;7846;48.830;9.116;2022-12-07T05:31:09;6.73;;;5.97;;
15488;SDS011;7846;48.830;9.116;2022-12-07T05:33:35;6.90;;;6.10;;
15488;SDS011;7846;48.830;9.116;2022-12-07T05:36:02;7.60;;;5.90;;
15488;SDS011;7846;48.830;9.116;2022-12-07T05:38:31;7.97;;;7.17;;
15488;SDS011;7846;48.830;9.116;2022-12-07T05:41:00;7.53;;;6.70;;
15488;SDS011;7846;48.830;9.116;2022-12-07T05:43:30;7.77;;;6.80;;
15488;SDS011;7846;48.830;9.116;2022-12-07T05:45:56;8.00;;;6.77;;
15488;SDS011;7846;48.830;9.116;2022-12-07T05:48:23;8.47;;;7.33;;
15488;SDS011;7846;48.830;9.116;2022-12-07T05:50:49;8.77;;;7.20;;
15488;SDS011;7846;48.830;9.116;2022-12-07T05:53:16;8.10;;;6.90;;
15488;SDS011;7846;48.830;9.116;2022-12-07T05:55:42;9.17;;;7.13;;
15488;SDS011;7846;48.830;9.116;2022-12-07T05:58:09;8.33;;;7.43;;
15488;SDS011;7846;48.830;9.116;2022-12-07T06:00:55;7.83;;;7.03;;
15488;SDS011;7846;48.830;9.116;2022-12-07T06:03:21;8.67;;;7.20;;
15488;SDS011;7846;48.830;9.116;2022-12-07T06:05:48;9.50;;;7.30;;
15488;SDS011;7846;48.830;9.116;2022-12-07T06:08:15;8.23;;;6.90;;
15488;SDS011;7846;48.830;9.116;2022-12-07T06:10:41;8.10;;;6.43;;
15488;SDS011;7846;48.830;9.116;2022-12-07T06:13:08;9.33;;;6.90;;
15488;SDS011;7846;48.830;9.116;2022-12-07T06:15:36;9.60;;;6.77;;
15488;SDS011;7846;48.830;9.116;2022-12-07T06:18:02;8.93;;;7.07;;
15488;SDS011;7846;48.830;9.116;2022-12-07T06:20:27;7.37;;;6.63;;
15488;SDS011;7846;48.830;9.116;2022-12-07T06:22:53;7.07;;;6.37;;
15488;SDS011;7846;48.830;9.116;2022-12-07T06:25:19;8.50;;;6.10;;
15488;SDS011;7846;48.830;9.116;2022-12-07T06:27:45;7.70;;;6.33;;
15488;SDS011;7846;48.830;9.116;2022-12-07T06:30:12;7.43;;;6.00;;
15488;SDS011;7846;48.830;9.116;2022-12-07T06:32:39;6.87;;;6.07;;
15488;SDS011;7846;48.830;9.116;2022-12-07T06:35:05;10.27;;;6.63;;
15488;SDS011;7846;48.830;9.116;2022-12-07T06:37:31;8.90;;;6.10;;
15488;SDS011;7846;48.830;9.116;2022-12-07T06:39:56;8.97;;;6.23;;
15488;SDS011;7846;48.830;9.116;2022-12-07T06:42:24;6.10;;;5.23;;
15488;SDS011;7846;48.830;9.116;2022-12-07T06:44:50;8.77;;;6.20;;
15488;SDS011;7846;48.830;9.116;2022-12-07T06:47:16;11.20;;;6.20;;
15488;SDS011;7846;48.830;9.116;2022-12-07T06:49:42;9.07;;;5.60;;
15488;SDS011;7846;48.830;9.116;2022-12-07T06:52:09;7.80;;;5.30;;
15488;SDS011;7846;48.830;9.116;2022-12-07T06:54:35;6.23;;;5.30;;
15488;SDS011;7846;48.830;9.116;2022-12-07T06:57:01;5.33;;;4.83;;
15488;SDS011;7846;48.830;9.116;2022-12-07T06:59:27;6.90;;;4.93;;
15488;SDS011;7846;48.830;9.116;2022-12-07T07:01:55;5.83;;;5.23;;
15488;SDS011;7846;48.830;9.116;2022-12-07T07:04:21;5.63;;;4.83;;
15488;SDS011;7846;48.830;9.116;2022-12-07T07:06:48;6.95;;;5.88;;
15488;SDS011;7846;48.830;9.116;2022-12-07T07:09:13;6.00;;;5.33;;
15488;SDS011;7846;48.830;9.116;2022-12-07T07:11:40;6.67;;;5.20;;
15488;SDS011;7846;48.830;9.116;2022-12-07T07:14:05;9.60;;;4.93;;
15488;SDS011;7846;48.830;9.116;2022-12-07T07:16:31;7.27;;;5.20;;
15488;SDS011;7846;48.830;9.116;2022-12-07T07:18:59;5.60;;;4.47;;
15488;SDS011;7846;48.830;9.116;2022-12-07T07:21:25;5.37;;;4.47;;
15488;SDS011;7846;48.830;9.116;2022-12-07T07:23:51;6.50;;;4.50;;
15488;SDS011;7846;48.830;9.116;2022-12-07T07:26:19;7.17;;;4.40;;
15488;SDS011;7846;48.830;9.116;2022-12-07T07:28:45;6.27;;;4.97;;
15488;SDS011;7846;48.830;9.116;2022-12-07T07:31:11;6.30;;;5.13;;
15488;SDS011;7846;48.830;9.116;2022-12-07T07:33:37;5.97;;;4.80;;
15488;SDS011;7846;48.830;9.116;2022-12-07T07:36:02;6.37;;;5.57;;
15488;SDS011;7846;48.830;9.116;2022-12-07T07:38:29;4.60;;;4.20;;
15488;SDS011;7846;48.830;9.116;2022-12-07T07:40:55;4.90;;;4.27;;
15488;SDS011;7846;48.830;9.116;2022-12-07T07:43:22;5.03;;;4.20;;
15488;SDS011;7846;48.830;9.116;2022-12-07T07:45:50;4.67;;;4.27;;
15488;SDS011;7846;48.830;9.116;2022-12-07T07:48:16;4.67;;;4.17;;
15488;SDS011;7846;48.830;9.116;2022-12-07T07:50:41;5.10;;;4.57;;
15488;SDS011;7846;48.830;9.116;2022-12-07T07:53:09;5.17;;;4.67;;
15488;SDS011;7846;48.830;9.116;2022-12-07T07:55:35;6.20;;;4.30;;
15488;SDS011;7846;48.830;9.116;2022-12-07T07:58:01;9.03;;;7.70;;
15488;SDS011;7846;48.830;9.116;2022-12-07T08:00:27;31.00;;;20.70;;
15488;SDS011;7846;48.830;9.116;2022-12-07T08:02:53;7.73;;;6.63;;
15488;SDS011;7846;48.830;9.116;2022-12-07T08:05:19;6.17;;;5.60;;
15488;SDS011;7846;48.830;9.116;2022-12-07T08:07:45;5.47;;;4.97;;
15488;SDS011;7846;48.830;9.116;2022-12-07T08:10:12;6.57;;;5.97;;
15488;SDS011;7846;48.830;9.116;2022-12-07T08:12:39;5.47;;;4.50;;
15488;SDS011;7846;48.830;9.116;2022-12-07T08:15:27;6.30;;;4.20;;
15488;SDS011;7846;48.830;9.116;2022-12-07T08:17:53;4.83;;;4.43;;
15488;SDS011;7846;48.830;9.116;2022-12-07T08:20:18;5.03;;;4.53;;
15488;SDS011;7846;48.830;9.116;2022-12-07T08:22:44;6.63;;;4.90;;
15488;SDS011;7846;48.830;9.116;2022-12-07T08:25:10;5.93;;;4.93;;
15488;SDS011;7846;48.830;9.116;2022-12-07T08:27:36;7.70;;;4.50;;
15488;SDS011;7846;48.830;9.116;2022-12-07T08:30:02;6.10;;;4.77;;
15488;SDS011;7846;48.830;9.116;2022-12-07T08:32:28;9.00;;;4.77;;
15488;SDS011;7846;48.830;9.116;2022-12-07T08:34:54;7.10;;;4.73;;
15488;SDS011;7846;48.830;9.116;2022-12-07T08:37:20;5.80;;;4.63;;
15488;SDS011;7846;48.830;9.116;2022-12-07T08:39:46;7.83;;;4.97;;
15488;SDS011;7846;48.830;9.116;2022-12-07T08:42:11;5.67;;;4.53;;
15488;SDS011;7846;48.830;9.116;2022-12-07T08:44:42;5.90;;;4.63;;
15488;SDS011;7846;48.830;9.116;2022-12-07T08:47:07;5.93;;;4.60;;
15488;SDS011;7846;48.830;9.116;2022-12-07T08:49:38;5.17;;;4.63;;
15488;SDS011;7846;48.830;9.116;2022-12-07T08:52:09;4.77;;;4.37;;
15488;SDS011;7846;48.830;9.116;2022-12-07T08:54:36;5.10;;;4.60;;
15488;SDS011;7846;48.830;9.116;2022-12-07T08:57:04;5.10;;;4.60;;
15488;SDS011;7846;48.830;9.116;2022-12-07T08:59:34;4.73;;;4.00;;
15488;SDS011;7846;48.830;9.116;2022-12-07T09:02:01;5.70;;;4.07;;
15488;SDS011;7846;48.830;9.116;2022-12-07T09:04:27;6.47;;;5.17;;
15488;SDS011;7846;48.830;9.116;2022-12-07T09:06:53;7.80;;;4.23;;
15488;SDS011;7846;48.830;9.116;2022-12-07T09:09:20;7.47;;;4.27;;
15488;SDS011;7846;48.830;9.116;2022-12-07T09:11:46;6.33;;;3.80;;
15488;SDS011;7846;48.830;9.116;2022-12-07T09:14:12;4.30;;;3.90;;
15488;SDS011;7846;48.830;9.116;2022-12-07T09:16:39;5.50;;;4.20;;
15488;SDS011;7846;48.830;9.116;2022-12-07T09:19:05;5.23;;;4.30;;
15488;SDS011;7846;48.830;9.116;2022-12-07T09:21:30;5.47;;;3.77;;
15488;SDS011;7846;48.830;9.116;2022-12-07T09:23:57;4.60;;;3.90;;
15488;SDS011;7846;48.830;9.116;2022-12-07T09:26:22;5.17;;;4.10;;
15488;SDS011;7846;48.830;9.116;2022-12-07T09:28:47;3.77;;;3.37;;
15488;SDS011;7846;48.830;9.116;2022-12-07T09:31:14;5.47;;;3.47;;
15488;SDS011;7846;48.830;9.116;2022-12-07T09:33:40;3.93;;;3.40;;
15488;SDS011;7846;48.830;9.116;2022-12-07T09:36:06;3.67;;;3.20;;
15488;SDS011;7846;48.830;9.116;2022-12-07T09:38:31;7.97;;;3.50;;
15488;SDS011;7846;48.830;9.116;2022-12-07T09:40:58;4.73;;;3.30;;
15488;SDS011;7846;48.830;9.116;2022-12-07T09:43:30;3.23;;;2.93;;
15488;SDS011;7846;48.830;9.116;2022-12-07T09:45:56;3.57;;;3.23;;
15488;SDS011;7846;48.830;9.116;2022-12-07T09:51:02;5.73;;;3.50;;
15488;SDS011;7846;48.830;9.116;2022-12-07T09:53:37;3.60;;;3.30;;
15488;SDS011;7846;48.830;9.116;2022-12-07T09:56:04;3.50;;;3.20;;
15488;SDS011;7846;48.830;9.116;2022-12-07T09:58:30;4.70;;;3.27;;
15488;SDS011;7846;48.830;9.116;2022-12-07T10:01:00;3.93;;;3.53;;
15488;SDS011;7846;48.830;9.116;2022-12-07T10:03:35;3.40;;;3.10;;
15488;SDS011;7846;48.830;9.116;2022-12-07T10:06:06;4.00;;;3.40;;
15488;SDS011;7846;48.830;9.116;2022-12-07T10:08:32;6.50;;;3.83;;
15488;SDS011;7846;48.830;9.116;2022-12-07T10:11:01;3.67;;;3.30;;
15488;SDS011;7846;48.830;9.116;2022-12-07T10:13:35;3.63;;;3.33;;
15488;SDS011;7846;48.830;9.116;2022-12-07T10:16:05;4.07;;;3.67;;
15488;SDS011;7846;48.830;9.116;2022-12-07T10:18:54;4.43;;;3.30;;
15488;SDS011;7846;48.830;9.116;2022-12-07T10:21:23;4.33;;;3.93;;
15488;SDS011;7846;48.830;9.116;2022-12-07T10:24:03;4.40;;;3.40;;
15488;SDS011;7846;48.830;9.116;2022-12-07T10:26:36;3.30;;;3.00;;
15488;SDS011;7846;48.830;9.116;2022-12-07T10:29:03;4.83;;;2.90;;
15488;SDS011;7846;48.830;9.116;2022-12-07T10:31:43;3.20;;;2.90;;
15488;SDS011;7846;48.830;9.116;2022-12-07T10:34:15;3.30;;;2.80;;
15488;SDS011;7846;48.830;9.116;2022-12-07T10:36:49;3.63;;;3.03;;
15488;SDS011;7846;48.830;9.116;2022-12-07T10:39:16;1.80;;;1.70;;
15488;SDS011;7846;48.830;9.116;2022-12-07T10:41:55;2.67;;;1.80;;
15488;SDS011;7846;48.830;9.116;2022-12-07T10:44:26;2.00;;;1.90;;
15488;SDS011;7846;48.830;9.116;2022-12-07T10:49:50;1.90;;;1.80;;
15488;SDS011;7846;48.830;9.116;2022-12-07T10:52:37;2.30;;;2.10;;
15488;SDS011;7846;48.830;9.116;2022-12-07T11:09:52;2.50;;;2.00;;
15488;SDS011;7846;48.830;9.116;2022-12-07T11:15:39;2.20;;;2.00;;
15488;SDS011;7846;48.830;9.116;2022-12-07T11:18:35;1.80;;;1.70;;
15488;SDS011;7846;48.830;9.116;2022-12-07T11:24:19;2.60;;;2.40;;
15488;SDS011;7846;48.830;9.116;2022-12-07T11:30:42;3.10;;;2.90;;
15488;SDS011;7846;48.830;9.116;2022-12-07T11:33:41;4.90;;;3.17;;
15488;SDS011;7846;48.830;9.116;2022-12-07T11:39:02;3.90;;;3.20;;
15488;SDS011;7846;48.830;9.116;2022-12-07T11:41:34;3.97;;;3.57;;
15488;SDS011;7846;48.830;9.116;2022-12-07T11:44:05;3.93;;;3.20;;
15488;SDS011;7846;48.830;9.116;2022-12-07T11:46:40;4.10;;;3.70;;
15488;SDS011;7846;48.830;9.116;2022-12-07T11:49:13;4.30;;;3.90;;
15488;SDS011;7846;48.830;9.116;2022-12-07T11:51:40;4.80;;;4.13;;
15488;SDS011;7846;48.830;9.116;2022-12-07T11:54:12;4.30;;;3.93;;
15488;SDS011;7846;48.830;9.116;2022-12-07T11:56:59;4.30;;;3.77;;
15488;SDS011;7846;48.830;9.116;2022-12-07T12:00:29;4.40;;;4.00;;
15488;SDS011;7846;48.830;9.116;2022-12-07T12:02:41;4.77;;;4.27;;
15488;SDS011;7846;48.830;9.116;2022-12-07T12:05:19;5.77;;;4.67;;
15488;SDS011;7846;48.830;9.116;2022-12-07T12:07:50;4.70;;;4.20;;
15488;SDS011;7846;48.830;9.116;2022-12-07T12:10:39;5.13;;;4.63;;
15488;SDS011;7846;48.830;9.116;2022-12-07T12:21:30;4.87;;;4.40;;
15488;SDS011;7846;48.830;9.116;2022-12-07T12:26:36;5.50;;;5.00;;
15488;SDS011;7846;48.830;9.116;2022-12-07T12:29:04;5.27;;;4.77;;
15488;SDS011;7846;48.830;9.116;2022-12-07T12:31:41;4.40;;;4.00;;
15488;SDS011;7846;48.830;9.116;2022-12-07T12:34:30;4.57;;;4.03;;
15488;SDS011;7846;48.830;9.116;2022-12-07T12:40:12;4.60;;;4.20;;
15488;SDS011;7846;48.830;9.116;2022-12-07T12:42:48;4.13;;;3.73;;
15488;SDS011;7846;48.830;9.116;2022-12-07T12:45:22;4.87;;;3.97;;
15488;SDS011;7846;48.830;9.116;2022-12-07T12:48:00;5.20;;;3.90;;
15488;SDS011;7846;48.830;9.116;2022-12-07T12:50:35;4.60;;;4.10;;
15488;SDS011;7846;48.830;9.116;2022-12-07T12:53:03;4.50;;;4.10;;
15488;SDS011;7846;48.830;9.116;2022-12-07T12:55:54;4.40;;;4.00;;
15488;SDS011;7846;48.830;9.116;2022-12-07T12:58:36;4.10;;;3.70;;
15488;SDS011;7846;48.830;9.116;2022-12-07T13:01:31;6.07;;;3.63;;
15488;SDS011;7846;48.830;9.116;2022-12-07T13:04:01;4.70;;;3.77;;
15488;SDS011;7846;48.830;9.116;2022-12-07T13:06:39;4.47;;;3.80;;
15488;SDS011;7846;48.830;9.116;2022-12-07T13:09:15;4.67;;;3.90;;
15488;SDS011;7846;48.830;9.116;2022-12-07T13:11:45;4.50;;;4.10;;
15488;SDS011;7846;48.830;9.116;2022-12-07T13:17:07;4.47;;;4.03;;
15488;SDS011;7846;48.830;9.116;2022-12-07T13:24:59;12.90;;;5.00;;
15488;SDS011;7846;48.830;9.116;2022-12-07T13:27:32;4.73;;;4.30;;
15488;SDS011;7846;48.830;9.116;2022-12-07T13:30:01;26.20;;;5.40;;
15488;SDS011;7846;48.830;9.116;2022-12-07T13:32:27;10.17;;;4.83;;
15488;SDS011;7846;48.830;9.116;2022-12-07T13:34:54;7.00;;;4.80;;
15488;SDS011;7846;48.830;9.116;2022-12-07T13:37:24;6.10;;;5.20;;
15488;SDS011;7846;48.830;9.116;2022-12-07T13:39:57;7.43;;;5.63;;
15488;SDS011;7846;48.830;9.116;2022-12-07T13:42:34;6.03;;;5.43;;
15488;SDS011;7846;48.830;9.116;2022-12-07T13:45:13;6.60;;;5.00;;
15488;SDS011;7846;48.830;9.116;2022-12-07T13:47:53;6.80;;;5.90;;
15488;SDS011;7846;48.830;9.116;2022-12-07T13:52:47;6.53;;;5.80;;
15488;SDS011;7846;48.830;9.116;2022-12-07T13:55:14;10.93;;;6.17;;
15488;SDS011;7846;48.830;9.116;2022-12-07T13:57:43;7.17;;;6.40;;
15488;SDS011;7846;48.830;9.116;2022-12-07T14:00:15;7.73;;;6.13;;
15488;SDS011;7846;48.830;9.116;2022-12-07T14:02:58;6.47;;;5.67;;
15488;SDS011;7846;48.830;9.116;2022-12-07T14:05:29;7.37;;;6.03;;
15488;SDS011;7846;48.830;9.116;2022-12-07T14:10:32;6.73;;;6.00;;
15488;SDS011;7846;48.830;9.116;2022-12-07T14:13:00;6.53;;;5.43;;
15488;SDS011;7846;48.830;9.116;2022-12-07T14:15:29;5.63;;;5.07;;
15488;SDS011;7846;48.830;9.116;2022-12-07T14:18:00;6.13;;;5.50;;
15488;SDS011;7846;48.830;9.116;2022-12-07T14:23:03;5.00;;;4.40;;
15488;SDS011;7846;48.830;9.116;2022-12-07T14:25:45;5.30;;;4.80;;
15488;SDS011;7846;48.830;9.116;2022-12-07T14:28:27;5.07;;;4.57;;
15488;SDS011;7846;48.830;9.116;2022-12-07T14:30:54;6.03;;;4.70;;
15488;SDS011;7846;48.830;9.116;2022-12-07T14:33:19;9.03;;;5.00;;
15488;SDS011;7846;48.830;9.116;2022-12-07T14:35:48;6.13;;;5.00;;
15488;SDS011;7846;48.830;9.116;2022-12-07T14:38:14;5.07;;;4.60;;
15488;SDS011;7846;48.830;9.116;2022-12-07T14:40:41;5.90;;;5.20;;
15488;SDS011;7846;48.830;9.116;2022-12-07T14:43:10;5.40;;;4.93;;
15488;SDS011;7846;48.830;9.116;2022-12-07T14:45:39;5.27;;;4.57;;
15488;SDS011;7846;48.830;9.116;2022-12-07T14:48:12;5.83;;;5.07;;
15488;SDS011;7846;48.830;9.116;2022-12-07T14:50:42;5.77;;;5.17;;
15488;SDS011;7846;48.830;9.116;2022-12-07T14:53:12;5.47;;;4.90;;
15488;SDS011;7846;48.830;9.116;2022-12-07T14:55:42;5.10;;;4.60;;
15488;SDS011;7846;48.830;9.116;2022-12-07T14:58:14;5.23;;;4.67;;
15488;SDS011;7846;48.830;9.116;2022-12-07T15:00:40;6.83;;;5.10;;
15488;SDS011;7846;48.830;9.116;2022-12-07T15:03:06;5.70;;;5.13;;
15488;SDS011;7846;48.830;9.116;2022-12-07T15:05:32;6.43;;;5.53;;
15488;SDS011;7846;48.830;9.116;2022-12-07T15:07:58;8.20;;;5.00;;
15488;SDS011;7846;48.830;9.116;2022-12-07T15:10:25;6.57;;;5.43;;
15488;SDS011;7846;48.830;9.116;2022-12-07T15:13:00;6.80;;;6.10;;
15488;SDS011;7846;48.830;9.116;2022-12-07T15:15:47;7.43;;;6.60;;
15488;SDS011;7846;48.830;9.116;2022-12-07T15:18:13;7.73;;;6.90;;
15488;SDS011;7846;48.830;9.116;2022-12-07T15:20:40;10.10;;;7.83;;
15488;SDS011;7846;48.830;9.116;2022-12-07T15:23:05;8.50;;;7.60;;
15488;SDS011;7846;48.830;9.116;2022-12-07T15:25:31;10.43;;;7.67;;
15488;SDS011;7846;48.830;9.116;2022-12-07T15:27:56;11.80;;;8.03;;
15488;SDS011;7846;48.830;9.116;2022-12-07T15:30:22;9.20;;;7.80;;
15488;SDS011;7846;48.830;9.116;2022-12-07T15:32:50;8.57;;;7.40;;
15488;SDS011;7846;48.830;9.116;2022-12-07T15:35:21;7.60;;;6.80;;
15488;SDS011;7846;48.830;9.116;2022-12-07T15:37:46;7.17;;;5.93;;
15488;SDS011;7846;48.830;9.116;2022-12-07T15:40:12;8.90;;;6.87;;
15488;SDS011;7846;48.830;9.116;2022-12-07T15:42:40;8.60;;;7.23;;
15488;SDS011;7846;48.830;9.116;2022-12-07T15:45:06;8.07;;;7.13;;
15488;SDS011;7846;48.830;9.116;2022-12-07T15:47:35;8.60;;;7.33;;
15488;SDS011;7846;48.830;9.116;2022-12-07T15:50:02;8.23;;;7.20;;
15488;SDS011;7846;48.830;9.116;2022-12-07T15:52:29;9.53;;;7.53;;
15488;SDS011;7846;48.830;9.116;2022-12-07T15:54:55;9.23;;;7.53;;
15488;SDS011;7846;48.830;9.116;2022-12-07T15:57:21;9.73;;;7.50;;
15488;SDS011;7846;48.830;9.116;2022-12-07T15:59:46;11.93;;;8.23;;
15488;SDS011;7846;48.830;9.116;2022-12-07T16:02:13;10.30;;;8.53;;
15488;SDS011;7846;48.830;9.116;2022-12-07T16:04:40;10.63;;;8.40;;
15488;SDS011;7846;48.830;9.116;2022-12-07T16:07:06;9.43;;;8.20;;
15488;SDS011;7846;48.830;9.116;2022-12-07T16:09:33;11.20;;;8.90;;
15488;SDS011;7846;48.830;9.116;2022-12-07T16:11:59;11.27;;;9.40;;
15488;SDS011;7846;48.830;9.116;2022-12-07T16:14:24;12.60;;;10.77;;
15488;SDS011;7846;48.830;9.116;2022-12-07T16:16:49;11.57;;;10.37;;
15488;SDS011;7846;48.830;9.116;2022-12-07T16:19:15;12.97;;;9.30;;
15488;SDS011;7846;48.830;9.116;2022-12-07T16:21:40;14.00;;;10.13;;
15488;SDS011;7846;48.830;9.116;2022-12-07T16:24:07;12.87;;;8.87;;
15488;SDS011;7846;48.830;9.116;2022-12-07T16:26:32;13.67;;;9.37;;
15488;SDS011;7846;48.830;9.116;2022-12-07T16:28:58;11.77;;;9.20;;
15488;SDS011;7846;48.830;9.116;2022-12-07T16:31:24;11.87;;;8.77;;
15488;SDS011;7846;48.830;9.116;2022-12-07T16:33:52;10.50;;;9.10;;
15488;SDS011;7846;48.830;9.116;2022-12-07T16:36:19;12.40;;;8.47;;